createdAt,value
2019-01-17T00:00:46.439Z,7.31
2019-01-17T00:01:46.404Z,7.33
2019-01-17T00:02:46.380Z,7.31
2019-01-17T00:03:46.334Z,7.36
2019-01-17T00:04:46.303Z,7.40
2019-01-17T00:05:46.264Z,7.25
2019-01-17T00:06:46.230Z,7.29
2019-01-17T00:07:46.188Z,7.28
2019-01-17T00:08:46.149Z,7.28
2019-01-17T00:09:46.111Z,7.25
2019-01-17T00:10:46.079Z,7.23
2019-01-17T00:11:46.035Z,7.21
2019-01-17T00:12:46.011Z,7.25
2019-01-17T00:13:45.983Z,7.24
2019-01-17T00:14:45.930Z,7.17
2019-01-17T00:15:45.911Z,7.13
2019-01-17T00:16:45.864Z,7.15
2019-01-17T00:17:45.833Z,7.14
2019-01-17T00:18:45.790Z,7.00
2019-01-17T00:19:45.754Z,7.03
2019-01-17T00:20:45.719Z,7.05
2019-01-17T00:21:45.685Z,7.02
2019-01-17T00:22:45.649Z,7.06
2019-01-17T00:23:45.603Z,7.10
2019-01-17T00:24:45.567Z,6.96
2019-01-17T00:25:45.529Z,6.93
2019-01-17T00:26:45.490Z,6.93
2019-01-17T00:27:45.461Z,6.96
2019-01-17T00:28:45.422Z,6.87
2019-01-17T00:29:45.375Z,6.85
2019-01-17T00:30:45.349Z,6.82
2019-01-17T00:31:45.306Z,6.85
2019-01-17T00:32:45.272Z,6.85
2019-01-17T00:33:45.244Z,6.87
2019-01-17T00:34:45.215Z,6.96
2019-01-17T00:35:45.160Z,6.84
2019-01-17T00:36:45.132Z,6.84
2019-01-17T00:37:45.094Z,6.85
2019-01-17T00:38:45.054Z,6.75
2019-01-17T00:39:45.019Z,6.85
2019-01-17T00:40:44.986Z,6.78
2019-01-17T00:41:44.946Z,6.85
2019-01-17T00:42:44.915Z,6.77
2019-01-17T00:43:44.867Z,6.77
2019-01-17T00:44:44.845Z,6.82
2019-01-17T00:45:44.791Z,6.82
2019-01-17T00:46:44.762Z,6.85
2019-01-17T00:47:44.725Z,6.85
2019-01-17T00:48:44.686Z,6.85
2019-01-17T00:49:44.651Z,6.84
2019-01-17T00:50:44.622Z,6.82
2019-01-17T00:51:44.573Z,6.85
2019-01-17T00:52:44.561Z,6.84
2019-01-17T00:53:44.498Z,6.96
2019-01-17T00:54:44.470Z,6.92
2019-01-17T00:55:44.433Z,6.88
2019-01-17T00:56:44.385Z,6.95
2019-01-17T00:57:44.355Z,6.97
2019-01-17T00:58:44.322Z,6.95
2019-01-17T00:59:44.281Z,6.92
2019-01-17T01:00:44.251Z,6.87
2019-01-17T01:01:44.207Z,6.92
2019-01-17T01:02:44.166Z,6.95
2019-01-17T01:03:44.151Z,6.96
2019-01-17T01:04:44.094Z,6.92
2019-01-17T01:05:44.066Z,6.97
2019-01-17T01:06:44.033Z,6.95
2019-01-17T01:07:43.981Z,6.95
2019-01-17T01:08:43.952Z,6.93
2019-01-17T01:09:43.919Z,6.96
2019-01-17T01:10:43.877Z,6.87
2019-01-17T01:11:43.842Z,6.92
2019-01-17T01:12:43.809Z,6.93
2019-01-17T01:13:43.790Z,6.96
2019-01-17T01:14:43.736Z,6.92
2019-01-17T01:15:43.698Z,6.82
2019-01-17T01:16:43.653Z,6.89
2019-01-17T01:17:43.618Z,6.88
2019-01-17T01:18:43.580Z,6.93
2019-01-17T01:19:43.548Z,6.96
2019-01-17T01:20:43.503Z,6.99
2019-01-17T01:21:43.481Z,6.88
2019-01-17T01:22:43.431Z,6.96
2019-01-17T01:23:43.394Z,6.97
2019-01-17T01:24:43.386Z,6.93
2019-01-17T01:25:43.329Z,6.92
2019-01-17T01:26:43.289Z,6.85
2019-01-17T01:27:43.257Z,7.03
2019-01-17T01:28:43.212Z,6.99
2019-01-17T01:29:43.174Z,6.95
2019-01-17T01:30:43.143Z,7.07
2019-01-17T01:31:43.108Z,7.02
2019-01-17T01:32:43.069Z,6.96
2019-01-17T01:33:43.040Z,6.85
2019-01-17T01:34:42.998Z,6.89
2019-01-17T01:35:42.954Z,6.95
2019-01-17T01:36:42.960Z,6.92
2019-01-17T01:37:42.888Z,6.92
2019-01-17T01:38:42.839Z,6.95
2019-01-17T01:39:42.801Z,6.96
2019-01-17T01:40:42.768Z,6.95
2019-01-17T01:41:42.734Z,6.88
2019-01-17T01:42:42.725Z,6.93
2019-01-17T01:43:42.659Z,6.95
2019-01-17T01:44:42.625Z,6.88
2019-01-17T01:45:42.602Z,6.79
2019-01-17T01:46:42.551Z,6.85
2019-01-17T01:47:42.524Z,6.87
2019-01-17T01:48:42.484Z,6.87
2019-01-17T01:49:42.450Z,6.84
2019-01-17T01:50:42.410Z,6.77
2019-01-17T01:51:42.364Z,6.85
2019-01-17T01:52:42.537Z,6.81
2019-01-17T01:53:42.303Z,6.72
2019-01-17T01:54:42.263Z,6.72
2019-01-17T01:55:42.230Z,6.79
2019-01-17T01:56:42.190Z,6.74
2019-01-17T01:57:42.162Z,6.70
2019-01-17T01:58:42.118Z,6.85
2019-01-17T01:59:42.073Z,6.93
2019-01-17T02:00:42.880Z,6.72
2019-01-17T02:01:41.995Z,6.74
2019-01-17T02:02:41.972Z,6.77
2019-01-17T02:03:41.923Z,6.74
2019-01-17T02:04:41.890Z,6.81
2019-01-17T02:05:41.856Z,6.70
2019-01-17T02:06:41.824Z,6.67
2019-01-17T02:07:41.783Z,6.62
2019-01-17T02:08:41.738Z,6.69
2019-01-17T02:09:41.715Z,6.63
2019-01-17T02:10:41.670Z,6.77
2019-01-17T02:11:41.639Z,6.64
2019-01-17T02:12:41.591Z,6.62
2019-01-17T02:13:41.561Z,6.67
2019-01-17T02:14:41.534Z,6.52
2019-01-17T02:15:41.494Z,6.66
2019-01-17T02:16:41.451Z,6.67
2019-01-17T02:17:41.416Z,6.62
2019-01-17T02:18:41.377Z,6.63
2019-01-17T02:19:41.337Z,6.62
2019-01-17T02:20:41.304Z,6.67
2019-01-17T02:21:41.259Z,6.67
2019-01-17T02:22:41.232Z,6.66
2019-01-17T02:23:41.194Z,6.67
2019-01-17T02:24:41.160Z,6.63
2019-01-17T02:25:41.129Z,6.60
2019-01-17T02:26:42.438Z,6.56
2019-01-17T02:27:41.042Z,6.64
2019-01-17T02:28:41.005Z,6.60
2019-01-17T02:29:40.972Z,6.60
2019-01-17T02:30:40.945Z,6.57
2019-01-17T02:31:40.900Z,6.57
2019-01-17T02:32:40.856Z,6.57
2019-01-17T02:33:40.819Z,6.49
2019-01-17T02:34:40.788Z,6.60
2019-01-17T02:35:40.743Z,6.62
2019-01-17T02:36:40.706Z,6.45
2019-01-17T02:37:40.676Z,6.52
2019-01-17T02:38:40.641Z,6.51
2019-01-17T02:39:40.609Z,6.51
2019-01-17T02:40:40.572Z,6.54
2019-01-17T02:41:40.533Z,6.56
2019-01-17T02:42:40.506Z,6.48
2019-01-17T02:43:40.460Z,6.44
2019-01-17T02:44:40.419Z,6.46
2019-01-17T02:45:40.383Z,6.46
2019-01-17T02:46:40.342Z,6.49
2019-01-17T02:47:40.299Z,6.42
2019-01-17T02:48:40.266Z,6.45
2019-01-17T02:49:40.232Z,6.45
2019-01-17T02:50:40.198Z,6.44
2019-01-17T02:51:40.157Z,6.51
2019-01-17T02:52:40.124Z,6.51
2019-01-17T02:53:40.082Z,6.49
2019-01-17T02:54:40.047Z,6.45
2019-01-17T02:55:40.009Z,6.49
2019-01-17T02:56:39.982Z,6.49
2019-01-17T02:57:39.938Z,6.45
2019-01-17T02:58:39.899Z,6.45
2019-01-17T02:59:39.864Z,6.45
2019-01-17T03:00:39.817Z,6.51
2019-01-17T03:01:39.786Z,6.46
2019-01-17T03:02:39.785Z,6.51
2019-01-17T03:03:39.716Z,6.51
2019-01-17T03:04:39.682Z,6.48
2019-01-17T03:05:39.642Z,6.46
2019-01-17T03:06:39.608Z,6.48
2019-01-17T03:07:39.564Z,6.49
2019-01-17T03:08:39.528Z,6.44
2019-01-17T03:09:39.498Z,6.45
2019-01-17T03:10:39.454Z,6.36
2019-01-17T03:11:39.422Z,6.41
2019-01-17T03:12:39.382Z,6.30
2019-01-17T03:13:39.348Z,6.45
2019-01-17T03:14:39.304Z,6.38
2019-01-17T03:15:39.272Z,6.45
2019-01-17T03:16:39.229Z,6.42
2019-01-17T03:17:39.199Z,6.45
2019-01-17T03:18:39.164Z,6.48
2019-01-17T03:19:39.131Z,6.48
2019-01-17T03:20:39.087Z,6.49
2019-01-17T03:21:39.047Z,6.54
2019-01-17T03:22:39.012Z,6.51
2019-01-17T03:23:38.968Z,6.48
2019-01-17T03:24:42.993Z,6.49
2019-01-17T03:25:38.907Z,6.46
2019-01-17T03:26:38.865Z,6.49
2019-01-17T03:27:38.833Z,6.44
2019-01-17T03:28:38.784Z,6.49
2019-01-17T03:29:38.791Z,6.59
2019-01-17T03:30:38.719Z,6.57
2019-01-17T03:31:38.690Z,6.51
2019-01-17T03:32:38.647Z,6.52
2019-01-17T03:33:38.608Z,6.51
2019-01-17T03:34:38.569Z,6.49
2019-01-17T03:35:38.539Z,6.69
2019-01-17T03:36:38.498Z,6.66
2019-01-17T03:37:38.458Z,6.63
2019-01-17T03:38:38.420Z,6.59
2019-01-17T03:39:38.389Z,6.63
2019-01-17T03:40:38.354Z,6.66
2019-01-17T03:41:38.301Z,6.63
2019-01-17T03:42:38.271Z,6.67
2019-01-17T03:43:38.239Z,6.59
2019-01-17T03:44:38.199Z,6.63
2019-01-17T03:45:38.166Z,6.57
2019-01-17T03:46:38.126Z,6.54
2019-01-17T03:47:38.084Z,6.54
2019-01-17T03:48:38.054Z,6.54
2019-01-17T03:49:38.021Z,6.64
2019-01-17T03:50:37.988Z,6.69
2019-01-17T03:51:37.944Z,6.60
2019-01-17T03:52:37.905Z,6.63
2019-01-17T03:53:37.865Z,6.62
2019-01-17T03:54:37.827Z,6.64
2019-01-17T03:55:37.791Z,6.69
2019-01-17T03:56:37.757Z,6.75
2019-01-17T03:57:37.721Z,6.56
2019-01-17T03:58:37.691Z,6.57
2019-01-17T03:59:37.646Z,6.67
2019-01-17T04:00:37.612Z,6.62
2019-01-17T04:01:37.565Z,6.62
2019-01-17T04:02:37.528Z,6.63
2019-01-17T04:03:37.512Z,6.64
2019-01-17T04:04:37.464Z,6.56
2019-01-17T04:05:37.424Z,6.57
2019-01-17T04:06:37.387Z,6.60
2019-01-17T04:07:37.356Z,6.60
2019-01-17T04:08:37.322Z,6.64
2019-01-17T04:09:37.271Z,6.54
2019-01-17T04:10:37.242Z,6.64
2019-01-17T04:11:37.202Z,6.63
2019-01-17T04:12:37.167Z,6.60
2019-01-17T04:13:37.131Z,6.63
2019-01-17T04:14:37.100Z,6.69
2019-01-17T04:15:37.066Z,6.63
2019-01-17T04:16:37.017Z,6.64
2019-01-17T04:17:36.986Z,6.78
2019-01-17T04:18:36.943Z,6.69
2019-01-17T04:19:36.911Z,6.75
2019-01-17T04:20:36.874Z,6.74
2019-01-17T04:21:36.842Z,6.79
2019-01-17T04:22:36.797Z,6.66
2019-01-17T04:23:36.757Z,6.63
2019-01-17T04:24:36.722Z,6.70
2019-01-17T04:25:36.692Z,6.66
2019-01-17T04:26:36.658Z,6.77
2019-01-17T04:27:36.623Z,6.74
2019-01-17T04:28:36.586Z,6.81
2019-01-17T04:29:36.540Z,6.63
2019-01-17T04:30:36.500Z,6.72
2019-01-17T04:31:36.473Z,6.62
2019-01-17T04:32:36.431Z,6.72
2019-01-17T04:33:36.396Z,6.74
2019-01-17T04:34:36.361Z,6.74
2019-01-17T04:35:36.321Z,6.77
2019-01-17T04:36:36.293Z,6.64
2019-01-17T04:37:36.251Z,6.64
2019-01-17T04:38:36.206Z,6.81
2019-01-17T04:39:36.171Z,6.77
2019-01-17T04:40:36.136Z,6.78
2019-01-17T04:41:36.102Z,6.72
2019-01-17T04:42:36.066Z,6.79
2019-01-17T04:43:36.026Z,6.72
2019-01-17T04:44:35.996Z,6.75
2019-01-17T04:45:35.955Z,6.63
2019-01-17T04:46:35.923Z,6.72
2019-01-17T04:47:35.884Z,6.67
2019-01-17T04:48:35.837Z,6.67
2019-01-17T04:49:35.797Z,6.75
2019-01-17T04:50:35.773Z,6.78
2019-01-17T04:51:35.733Z,6.67
2019-01-17T04:52:35.699Z,6.75
2019-01-17T04:53:35.662Z,6.72
2019-01-17T04:54:35.629Z,6.63
2019-01-17T04:55:35.587Z,6.77
2019-01-17T04:56:35.547Z,6.72
2019-01-17T04:57:35.507Z,6.63
2019-01-17T04:58:35.479Z,6.62
2019-01-17T04:59:35.439Z,6.60
2019-01-17T05:00:35.404Z,6.64
2019-01-17T05:01:35.372Z,6.49
2019-01-17T05:02:35.335Z,6.60
2019-01-17T05:03:35.295Z,6.57
2019-01-17T05:04:35.260Z,6.57
2019-01-17T05:05:35.215Z,6.49
2019-01-17T05:06:35.184Z,6.64
2019-01-17T05:07:35.143Z,6.48
2019-01-17T05:08:35.106Z,6.49
2019-01-17T05:09:35.080Z,6.48
2019-01-17T05:10:35.044Z,6.51
2019-01-17T05:11:35.002Z,6.45
2019-01-17T05:12:34.962Z,6.38
2019-01-17T05:13:34.924Z,6.38
2019-01-17T05:14:34.888Z,6.28
2019-01-17T05:15:34.850Z,6.30
2019-01-17T05:16:34.816Z,6.30
2019-01-17T05:17:34.778Z,6.41
2019-01-17T05:18:34.738Z,6.33
2019-01-17T05:19:34.706Z,6.33
2019-01-17T05:20:34.667Z,6.36
2019-01-17T05:21:34.639Z,6.19
2019-01-17T05:22:34.592Z,6.30
2019-01-17T05:23:34.558Z,6.33
2019-01-17T05:24:34.520Z,6.24
2019-01-17T05:25:34.482Z,6.22
2019-01-17T05:26:34.446Z,6.22
2019-01-17T05:27:34.405Z,6.19
2019-01-17T05:28:34.401Z,6.24
2019-01-17T05:29:34.346Z,6.27
2019-01-17T05:30:34.300Z,6.28
2019-01-17T05:31:34.256Z,6.30
2019-01-17T05:32:36.826Z,6.42
2019-01-17T05:33:34.189Z,6.30
2019-01-17T05:34:39.381Z,6.31
2019-01-17T05:35:34.110Z,6.33
2019-01-17T05:36:34.071Z,6.28
2019-01-17T05:37:34.033Z,6.24
2019-01-17T05:38:34.002Z,6.30
2019-01-17T05:39:33.965Z,6.46
2019-01-17T05:40:33.924Z,6.49
2019-01-17T05:41:33.885Z,6.46
2019-01-17T05:42:33.847Z,6.49
2019-01-17T05:43:33.809Z,6.46
2019-01-17T05:44:33.775Z,6.48
2019-01-17T05:45:33.751Z,6.49
2019-01-17T05:46:33.702Z,6.38
2019-01-17T05:47:33.669Z,6.45
2019-01-17T05:48:33.641Z,6.52
2019-01-17T05:49:33.599Z,6.54
2019-01-17T05:50:33.550Z,6.46
2019-01-17T05:51:33.523Z,6.57
2019-01-17T05:52:33.486Z,6.49
2019-01-17T05:53:33.440Z,6.52
2019-01-17T05:54:33.410Z,6.49
2019-01-17T05:55:33.374Z,6.60
2019-01-17T05:56:33.334Z,6.59
2019-01-17T05:57:33.310Z,6.46
2019-01-17T05:58:33.260Z,6.51
2019-01-17T05:59:33.222Z,6.45
2019-01-17T06:00:33.186Z,6.44
2019-01-17T06:01:33.162Z,6.46
2019-01-17T06:02:33.122Z,6.48
2019-01-17T06:03:33.082Z,6.49
2019-01-17T06:04:33.045Z,6.49
2019-01-17T06:05:33.010Z,6.56
2019-01-17T06:06:33.304Z,6.44
2019-01-17T06:07:32.931Z,6.45
2019-01-17T06:08:32.890Z,6.48
2019-01-17T06:09:32.856Z,6.46
2019-01-17T06:10:32.822Z,6.41
2019-01-17T06:11:32.793Z,6.42
2019-01-17T06:12:32.751Z,6.48
2019-01-17T06:13:32.707Z,6.44
2019-01-17T06:14:32.674Z,6.49
2019-01-17T06:15:32.627Z,6.63
2019-01-17T06:16:32.593Z,6.63
2019-01-17T06:17:32.566Z,6.52
2019-01-17T06:18:32.522Z,6.57
2019-01-17T06:19:32.487Z,6.52
2019-01-17T06:20:32.460Z,6.51
2019-01-17T06:21:32.413Z,6.46
2019-01-17T06:22:32.383Z,6.52
2019-01-17T06:23:32.343Z,6.54
2019-01-17T06:24:32.297Z,6.62
2019-01-17T06:25:32.273Z,6.54
2019-01-17T06:26:32.229Z,6.60
2019-01-17T06:27:32.191Z,6.51
2019-01-17T06:28:32.157Z,6.46
2019-01-17T06:29:32.114Z,6.46
2019-01-17T06:30:32.083Z,6.60
2019-01-17T06:31:32.058Z,6.45
2019-01-17T06:32:32.006Z,6.51
2019-01-17T06:33:31.971Z,6.45
2019-01-17T06:34:31.937Z,6.51
2019-01-17T06:35:31.895Z,6.49
2019-01-17T06:36:31.863Z,6.46
2019-01-17T06:37:31.828Z,6.49
2019-01-17T06:38:31.787Z,6.46
2019-01-17T06:39:31.747Z,6.46
2019-01-17T06:40:31.712Z,6.45
2019-01-17T06:41:31.678Z,6.49
2019-01-17T06:42:31.633Z,6.39
2019-01-17T06:43:31.609Z,6.44
2019-01-17T06:44:31.560Z,6.36
2019-01-17T06:45:31.529Z,6.39
2019-01-17T06:46:31.494Z,6.33
2019-01-17T06:47:31.461Z,6.26
2019-01-17T06:48:31.424Z,6.28
2019-01-17T06:49:31.383Z,6.26
2019-01-17T06:50:31.344Z,6.24
2019-01-17T06:51:31.307Z,6.38
2019-01-17T06:52:31.270Z,6.39
2019-01-17T06:53:31.228Z,6.28
2019-01-17T06:54:31.194Z,6.31
2019-01-17T06:55:34.579Z,6.31
2019-01-17T06:56:31.114Z,6.38
2019-01-17T06:57:31.089Z,6.44
2019-01-17T06:58:31.049Z,6.42
2019-01-17T06:59:31.004Z,6.31
2019-01-17T07:00:30.983Z,6.30
2019-01-17T07:01:30.934Z,6.31
2019-01-17T07:02:30.907Z,6.36
2019-01-17T07:03:30.869Z,6.38
2019-01-17T07:04:30.824Z,6.45
2019-01-17T07:05:30.795Z,6.45
2019-01-17T07:06:30.753Z,6.41
2019-01-17T07:07:30.714Z,6.45
2019-01-17T07:08:30.680Z,6.45
2019-01-17T07:09:30.644Z,6.42
2019-01-17T07:10:30.615Z,6.42
2019-01-17T07:11:30.565Z,6.45
2019-01-17T07:12:30.530Z,6.45
2019-01-17T07:13:30.488Z,6.49
2019-01-17T07:14:30.450Z,6.45
2019-01-17T07:15:30.410Z,6.44
2019-01-17T07:16:30.386Z,6.49
2019-01-17T07:17:30.345Z,6.46
2019-01-17T07:18:30.310Z,6.46
2019-01-17T07:19:30.269Z,6.48
2019-01-17T07:20:30.235Z,6.48
2019-01-17T07:21:30.194Z,6.51
2019-01-17T07:22:30.161Z,6.49
2019-01-17T07:23:30.120Z,6.36
2019-01-17T07:24:30.084Z,6.51
2019-01-17T07:25:30.046Z,6.36
2019-01-17T07:26:30.009Z,6.31
2019-01-17T07:27:29.974Z,6.33
2019-01-17T07:28:29.940Z,6.26
2019-01-17T07:29:29.901Z,6.33
2019-01-17T07:30:29.856Z,6.35
2019-01-17T07:31:29.826Z,6.24
2019-01-17T07:32:29.786Z,6.28
2019-01-17T07:33:29.749Z,6.20
2019-01-17T07:34:29.710Z,6.20
2019-01-17T07:35:29.680Z,6.24
2019-01-17T07:36:29.631Z,6.12
2019-01-17T07:37:29.622Z,6.22
2019-01-17T07:38:29.567Z,6.14
2019-01-17T07:39:29.526Z,6.14
2019-01-17T07:40:29.491Z,6.09
2019-01-17T07:41:29.462Z,6.02
2019-01-17T07:42:29.412Z,6.11
2019-01-17T07:43:29.379Z,6.01
2019-01-17T07:44:29.335Z,6.01
2019-01-17T07:45:29.302Z,6.02
2019-01-17T07:46:29.268Z,6.02
2019-01-17T07:47:29.240Z,6.02
2019-01-17T07:48:29.187Z,6.07
2019-01-17T07:49:29.165Z,6.02
2019-01-17T07:50:29.132Z,5.99
2019-01-17T07:51:29.090Z,6.07
2019-01-17T07:52:30.357Z,6.05
2019-01-17T07:53:29.008Z,5.98
2019-01-17T07:54:28.967Z,6.08
2019-01-17T07:55:28.932Z,6.04
2019-01-17T07:56:28.892Z,6.04
2019-01-17T07:57:28.857Z,6.08
2019-01-17T07:58:28.826Z,6.14
2019-01-17T07:59:28.782Z,6.07
2019-01-17T08:00:28.745Z,6.12
2019-01-17T08:01:28.715Z,6.16
2019-01-17T08:02:28.673Z,6.12
2019-01-17T08:03:28.631Z,6.19
2019-01-17T08:04:28.593Z,6.22
2019-01-17T08:05:28.565Z,6.27
2019-01-17T08:06:28.530Z,6.22
2019-01-17T08:07:28.487Z,6.28
2019-01-17T08:08:28.446Z,6.27
2019-01-17T08:09:28.418Z,6.22
2019-01-17T08:10:28.381Z,6.30
2019-01-17T08:11:28.342Z,6.38
2019-01-17T08:12:28.308Z,6.45
2019-01-17T08:13:28.263Z,6.48
2019-01-17T08:14:28.223Z,6.42
2019-01-17T08:15:28.196Z,6.46
2019-01-17T08:16:28.153Z,6.51
2019-01-17T08:17:28.118Z,6.45
2019-01-17T08:18:28.082Z,6.44
2019-01-17T08:19:28.041Z,6.66
2019-01-17T08:20:28.002Z,6.51
2019-01-17T08:21:27.969Z,6.56
2019-01-17T08:22:27.937Z,6.59
2019-01-17T08:23:27.902Z,6.64
2019-01-17T08:24:27.862Z,6.70
2019-01-17T08:25:27.819Z,6.67
2019-01-17T08:26:27.773Z,6.69
2019-01-17T08:27:27.757Z,6.79
2019-01-17T08:28:27.703Z,6.78
2019-01-17T08:29:27.674Z,6.72
2019-01-17T08:30:27.652Z,6.75
2019-01-17T08:31:27.614Z,6.82
2019-01-17T08:32:27.560Z,6.87
2019-01-17T08:33:27.527Z,6.95
2019-01-17T08:34:28.421Z,6.93
2019-01-17T08:35:27.449Z,6.99
2019-01-17T08:36:27.427Z,7.05
2019-01-17T08:37:27.377Z,7.18
2019-01-17T08:38:27.334Z,7.21
2019-01-17T08:39:27.313Z,7.24
2019-01-17T08:40:27.260Z,7.20
2019-01-17T08:41:27.239Z,7.31
2019-01-17T08:42:27.198Z,7.33
2019-01-17T08:43:27.161Z,7.35
2019-01-17T08:44:27.121Z,7.35
2019-01-17T08:45:27.094Z,7.35
2019-01-17T08:46:27.049Z,7.33
2019-01-17T08:47:27.019Z,7.39
2019-01-17T08:48:26.974Z,7.35
2019-01-17T08:49:26.940Z,7.32
2019-01-17T08:50:28.007Z,7.25
2019-01-17T08:51:26.864Z,7.24
2019-01-17T08:52:26.838Z,7.29
2019-01-17T08:53:26.800Z,7.17
2019-01-17T08:54:26.759Z,7.23
2019-01-17T08:55:26.726Z,7.32
2019-01-17T08:56:26.686Z,7.38
2019-01-17T08:57:26.658Z,7.35
2019-01-17T08:58:26.619Z,7.36
2019-01-17T08:59:26.584Z,7.33
2019-01-17T09:00:26.544Z,7.38
2019-01-17T09:01:26.506Z,7.35
2019-01-17T09:02:26.476Z,7.38
2019-01-17T09:03:26.432Z,7.40
2019-01-17T09:04:26.400Z,7.48
2019-01-17T09:05:26.365Z,7.43
2019-01-17T09:06:26.325Z,7.48
2019-01-17T09:07:26.283Z,7.57
2019-01-17T09:08:26.246Z,7.67
2019-01-17T09:09:26.219Z,7.56
2019-01-17T09:10:26.180Z,7.51
2019-01-17T09:11:26.139Z,7.60
2019-01-17T09:12:26.111Z,7.67
2019-01-17T09:13:26.067Z,7.66
2019-01-17T09:14:26.032Z,7.76
2019-01-17T09:15:26.009Z,7.69
2019-01-17T09:16:25.974Z,7.63
2019-01-17T09:17:25.929Z,7.63
2019-01-17T09:18:25.887Z,7.58
2019-01-17T09:19:25.855Z,7.73
2019-01-17T09:20:25.822Z,7.82
2019-01-17T09:21:25.781Z,7.77
2019-01-17T09:22:25.746Z,7.82
2019-01-17T09:23:25.712Z,7.88
2019-01-17T09:24:25.677Z,7.93
2019-01-17T09:25:25.637Z,7.90
2019-01-17T09:26:25.601Z,7.91
2019-01-17T09:27:25.562Z,7.90
2019-01-17T09:28:25.526Z,7.87
2019-01-17T09:29:25.500Z,7.88
2019-01-17T09:30:25.460Z,7.93
2019-01-17T09:31:25.426Z,7.90
2019-01-17T09:32:25.387Z,7.93
2019-01-17T09:33:25.345Z,7.88
2019-01-17T09:34:25.320Z,7.95
2019-01-17T09:35:25.273Z,7.87
2019-01-17T09:36:25.242Z,7.88
2019-01-17T09:37:25.210Z,7.94
2019-01-17T09:38:25.173Z,7.87
2019-01-17T09:39:25.137Z,7.95
2019-01-17T09:40:25.100Z,7.95
2019-01-17T09:41:25.066Z,7.91
2019-01-17T09:42:25.027Z,7.87
2019-01-17T09:43:24.998Z,7.94
2019-01-17T09:44:24.956Z,7.94
2019-01-17T09:45:24.913Z,8.00
2019-01-17T09:46:24.885Z,7.98
2019-01-17T09:47:24.847Z,8.01
2019-01-17T09:48:24.807Z,7.93
2019-01-17T09:49:24.777Z,7.93
2019-01-17T09:50:24.739Z,7.97
2019-01-17T09:51:24.701Z,7.93
2019-01-17T09:52:24.661Z,8.05
2019-01-17T09:53:24.628Z,8.10
2019-01-17T09:54:24.598Z,7.98
2019-01-17T09:55:24.558Z,7.93
2019-01-17T09:56:24.526Z,7.91
2019-01-17T09:57:24.484Z,7.98
2019-01-17T09:58:24.452Z,8.00
2019-01-17T09:59:24.427Z,8.09
2019-01-17T10:00:24.369Z,8.16
2019-01-17T10:01:24.347Z,8.19
2019-01-17T10:02:24.313Z,8.18
2019-01-17T10:03:24.268Z,8.09
2019-01-17T10:04:26.605Z,8.23
2019-01-17T10:05:24.208Z,8.37
2019-01-17T10:06:24.169Z,8.34
2019-01-17T10:07:24.133Z,8.42
2019-01-17T10:08:24.083Z,8.41
2019-01-17T10:09:24.065Z,8.46
2019-01-17T10:10:24.111Z,8.34
2019-01-17T10:11:23.983Z,8.36
2019-01-17T10:12:23.943Z,8.31
2019-01-17T10:13:23.914Z,8.20
2019-01-17T10:14:23.878Z,8.12
2019-01-17T10:15:23.877Z,8.28
2019-01-17T10:16:23.817Z,8.30
2019-01-17T10:17:23.774Z,8.10
2019-01-17T10:18:23.735Z,8.05
2019-01-17T10:19:23.703Z,8.01
2019-01-17T10:20:23.657Z,8.00
2019-01-17T10:21:23.628Z,8.06
2019-01-17T10:22:23.602Z,7.98
2019-01-17T10:23:23.560Z,7.88
2019-01-17T10:24:23.529Z,7.88
2019-01-17T10:25:23.489Z,7.90
2019-01-17T10:26:23.454Z,7.87
2019-01-17T10:27:23.423Z,7.88
2019-01-17T10:28:23.374Z,7.85
2019-01-17T10:29:23.345Z,7.75
2019-01-17T10:30:23.319Z,7.72
2019-01-17T10:31:23.274Z,7.77
2019-01-17T10:32:23.237Z,7.63
2019-01-17T10:33:23.193Z,7.75
2019-01-17T10:34:23.165Z,7.67
2019-01-17T10:35:23.123Z,7.61
2019-01-17T10:36:23.094Z,7.66
2019-01-17T10:37:23.054Z,7.70
2019-01-17T10:38:23.018Z,7.60
2019-01-17T10:39:22.984Z,7.53
2019-01-17T10:40:22.944Z,7.48
2019-01-17T10:41:22.928Z,7.42
2019-01-17T10:42:22.883Z,7.29
2019-01-17T10:43:22.838Z,7.31
2019-01-17T10:44:22.804Z,7.42
2019-01-17T10:45:22.766Z,7.33
2019-01-17T10:46:22.735Z,7.35
2019-01-17T10:47:22.701Z,7.38
2019-01-17T10:48:22.659Z,7.23
2019-01-17T10:49:22.626Z,7.31
2019-01-17T10:50:22.585Z,7.38
2019-01-17T10:51:22.546Z,7.36
2019-01-17T10:52:22.510Z,7.31
2019-01-17T10:53:22.474Z,7.47
2019-01-17T10:54:22.442Z,7.51
2019-01-17T10:55:22.414Z,7.50
2019-01-17T10:56:27.749Z,7.51
2019-01-17T10:57:22.333Z,7.45
2019-01-17T10:58:22.291Z,7.42
2019-01-17T10:59:22.253Z,7.50
2019-01-17T11:00:22.221Z,7.47
2019-01-17T11:01:22.191Z,7.39
2019-01-17T11:02:22.156Z,7.35
2019-01-17T11:03:22.110Z,7.35
2019-01-17T11:04:22.073Z,7.28
2019-01-17T11:05:22.035Z,7.39
2019-01-17T11:06:22.005Z,7.39
2019-01-17T11:07:21.960Z,7.36
2019-01-17T11:08:21.936Z,7.43
2019-01-17T11:09:21.897Z,7.32
2019-01-17T11:10:21.863Z,7.36
2019-01-17T11:11:21.827Z,7.29
2019-01-17T11:12:21.783Z,7.28
2019-01-17T11:13:21.752Z,7.17
2019-01-17T11:14:21.712Z,7.03
2019-01-17T11:15:21.681Z,6.97
2019-01-17T11:16:21.645Z,6.96
2019-01-17T11:17:21.607Z,6.81
2019-01-17T11:18:21.571Z,6.87
2019-01-17T11:19:21.531Z,6.72
2019-01-17T11:20:21.501Z,6.77
2019-01-17T11:21:21.461Z,6.77
2019-01-17T11:22:21.421Z,6.64
2019-01-17T11:23:21.382Z,6.49
2019-01-17T11:24:21.346Z,6.60
2019-01-17T11:25:21.321Z,6.62
2019-01-17T11:26:21.286Z,6.59
2019-01-17T11:27:21.240Z,6.52
2019-01-17T11:28:21.226Z,6.59
2019-01-17T11:29:21.161Z,6.70
2019-01-17T11:30:21.157Z,6.62
2019-01-17T11:31:21.102Z,6.51
2019-01-17T11:32:21.054Z,6.62
2019-01-17T11:33:21.026Z,6.62
2019-01-17T11:34:20.998Z,6.63
2019-01-17T11:35:20.952Z,6.64
2019-01-17T11:36:20.903Z,6.56
2019-01-17T11:37:20.866Z,6.57
2019-01-17T11:38:20.839Z,6.57
2019-01-17T11:39:20.796Z,6.66
2019-01-17T11:40:20.754Z,6.60
2019-01-17T11:41:20.723Z,6.57
2019-01-17T11:42:20.684Z,6.62
2019-01-17T11:43:20.649Z,6.57
2019-01-17T11:44:20.614Z,6.54
2019-01-17T11:45:20.578Z,6.44
2019-01-17T11:46:20.546Z,6.45
2019-01-17T11:47:20.509Z,6.45
2019-01-17T11:48:20.463Z,6.45
2019-01-17T11:49:20.428Z,6.51
2019-01-17T11:50:20.405Z,6.38
2019-01-17T11:51:20.358Z,6.45
2019-01-17T11:52:20.321Z,6.22
2019-01-17T11:53:20.279Z,6.17
2019-01-17T11:54:20.253Z,6.09
2019-01-17T11:55:20.217Z,6.05
2019-01-17T11:56:20.172Z,6.02
2019-01-17T11:57:20.132Z,5.91
2019-01-17T11:58:20.098Z,5.89
2019-01-17T11:59:20.058Z,5.79
2019-01-17T12:00:20.027Z,5.83
2019-01-17T12:01:19.978Z,5.79
2019-01-17T12:02:19.953Z,5.72
2019-01-17T12:03:19.909Z,5.71
2019-01-17T12:04:19.876Z,5.69
2019-01-17T12:05:19.840Z,5.75
2019-01-17T12:06:19.803Z,5.76
2019-01-17T12:07:19.764Z,5.71
2019-01-17T12:08:19.724Z,5.75
2019-01-17T12:09:19.744Z,5.71
2019-01-17T12:10:19.644Z,5.69
2019-01-17T12:11:19.614Z,5.69
2019-01-17T12:12:19.577Z,5.56
2019-01-17T12:13:19.534Z,5.65
2019-01-17T12:14:19.503Z,5.51
2019-01-17T12:15:19.464Z,5.36
2019-01-17T12:16:19.423Z,5.26
2019-01-17T12:17:19.396Z,5.29
2019-01-17T12:18:19.351Z,5.30
2019-01-17T12:19:19.314Z,5.26
2019-01-17T12:20:19.270Z,5.25
2019-01-17T12:21:19.244Z,5.10
2019-01-17T12:22:19.208Z,5.18
2019-01-17T12:23:19.161Z,5.18
2019-01-17T12:24:19.125Z,5.12
2019-01-17T12:25:19.096Z,4.99
2019-01-17T12:26:19.041Z,5.07
2019-01-17T12:27:19.020Z,4.99
2019-01-17T12:28:18.974Z,4.93
2019-01-17T12:29:18.930Z,4.89
2019-01-17T12:30:18.904Z,4.96
2019-01-17T12:31:18.865Z,4.94
2019-01-17T12:32:18.829Z,5.04
2019-01-17T12:33:18.821Z,4.89
2019-01-17T12:34:18.744Z,4.89
2019-01-17T12:35:18.716Z,4.87
2019-01-17T12:36:18.682Z,4.87
2019-01-17T12:37:18.639Z,4.84
2019-01-17T12:38:18.601Z,4.74
2019-01-17T12:39:18.567Z,4.66
2019-01-17T12:40:18.514Z,4.70
2019-01-17T12:41:18.492Z,4.68
2019-01-17T12:42:18.448Z,4.74
2019-01-17T12:43:18.421Z,4.78
2019-01-17T12:44:18.384Z,4.77
2019-01-17T12:45:18.336Z,4.78
2019-01-17T12:46:18.291Z,4.84
2019-01-17T12:47:18.256Z,4.87
2019-01-17T12:48:18.226Z,4.87
2019-01-17T12:49:18.178Z,5.04
2019-01-17T12:50:18.142Z,4.97
2019-01-17T12:51:18.111Z,4.93
2019-01-17T12:52:18.076Z,4.94
2019-01-17T12:53:18.031Z,4.93
2019-01-17T12:54:17.992Z,4.97
2019-01-17T12:55:17.960Z,4.99
2019-01-17T12:56:17.910Z,5.00
2019-01-17T12:57:17.892Z,4.97
2019-01-17T12:58:17.846Z,5.12
2019-01-17T12:59:17.797Z,5.14
2019-01-17T13:00:17.767Z,5.04
2019-01-17T13:01:17.731Z,5.08
2019-01-17T13:02:17.700Z,5.17
2019-01-17T13:03:17.652Z,5.18
2019-01-17T13:04:17.619Z,5.11
2019-01-17T13:05:17.580Z,5.18
2019-01-17T13:06:17.539Z,5.21
2019-01-17T13:07:17.497Z,5.17
2019-01-17T13:08:17.473Z,5.21
2019-01-17T13:09:17.418Z,5.38
2019-01-17T13:10:17.377Z,5.29
2019-01-17T13:11:17.356Z,5.35
2019-01-17T13:12:17.306Z,5.32
2019-01-17T13:13:17.282Z,5.26
2019-01-17T13:14:17.238Z,5.30
2019-01-17T13:15:17.201Z,5.30
2019-01-17T13:16:17.162Z,5.46
2019-01-17T13:17:17.133Z,5.47
2019-01-17T13:18:17.088Z,5.35